Time;durP1;ratioP1;P1;durP2;ratioP2;P2;SDS_P1;SDS_P2;PMS_P1;PMS_P2;Temp;Humidity;BMP_temperature;BMP_pressure;BME280_temperature;BME280_humidity;BME280_pressure;Samples;Min_cycle;Max_cycle;Signal;HPM_P1;HPM_P2
2021/08/11 00:00:19;;;;;;;8.02;3.60;;;;;;;20.95;73.87;99599.13;5094457;28;20036;-71
2021/08/11 00:02:48;;;;;;;6.80;3.00;;;;;;;20.92;73.94;99604.47;5097783;28;20060;-71
2021/08/11 00:05:18;;;;;;;8.00;3.45;;;;;;;20.94;74.26;99653.72;5098429;28;20032;-71
2021/08/11 00:07:47;;;;;;;9.20;3.35;;;;;;;20.88;74.70;99665.19;5097366;28;20050;-71
2021/08/11 00:10:16;;;;;;;9.32;3.25;;;;;;;20.78;75.11;99650.91;5097247;28;20047;-70
2021/08/11 00:12:47;;;;;;;5.43;3.10;;;;;;;20.74;75.12;99657.16;5097635;28;20044;-71
2021/08/11 00:15:16;;;;;;;7.45;3.20;;;;;;;20.79;75.31;99657.81;5097366;28;20097;-70
2021/08/11 00:17:46;;;;;;;5.07;3.15;;;;;;;20.84;75.63;99652.41;5097641;28;20036;-71
2021/08/11 00:20:15;;;;;;;7.38;3.50;;;;;;;20.84;75.75;99653.25;5097806;28;20123;-71
2021/08/11 00:22:44;;;;;;;6.70;2.90;;;;;;;20.73;76.08;99652.03;5097086;28;20040;-71
2021/08/11 00:25:14;;;;;;;5.35;2.75;;;;;;;20.66;76.56;99644.50;5097390;28;20055;-71
2021/08/11 00:27:43;;;;;;;7.18;3.88;;;;;;;20.58;76.56;99645.75;5097138;28;20485;-70
2021/08/11 00:30:15;;;;;;;5.13;3.28;;;;;;;20.59;76.73;99647.41;5096905;28;20119;-71
2021/08/11 00:32:44;;;;;;;6.20;3.50;;;;;;;20.68;76.62;99637.50;5097294;28;20043;-70
2021/08/11 00:35:23;;;;;;;6.05;3.30;;;;;;;20.57;76.40;99633.66;5097297;28;20390;-71
2021/08/11 00:37:53;;;;;;;7.18;3.63;;;;;;;20.66;75.88;99647.09;5061999;28;20489;-71
2021/08/11 00:40:24;;;;;;;6.95;3.58;;;;;;;20.70;75.55;99640.03;5078877;28;20089;-71
2021/08/11 00:42:54;;;;;;;7.30;3.65;;;;;;;20.73;75.10;99638.13;5079267;28;20036;-71
2021/08/11 00:45:25;;;;;;;10.32;4.00;;;;;;;20.80;74.57;99641.34;5078971;28;20028;-71
2021/08/11 00:47:55;;;;;;;6.32;3.50;;;;;;;20.80;74.49;99638.75;5078609;28;20047;-71
2021/08/11 00:50:28;;;;;;;7.97;3.85;;;;;;;20.80;74.34;99630.97;5078888;28;20055;-71
2021/08/11 00:52:59;;;;;;;7.18;3.70;;;;;;;20.79;74.31;99629.25;5078877;28;20070;-70
2021/08/11 00:55:30;;;;;;;5.60;3.28;;;;;;;20.67;74.45;99630.63;5078526;28;20049;-71
2021/08/11 00:57:59;;;;;;;6.18;3.42;;;;;;;20.69;74.84;99639.19;5078479;28;20525;-71
2021/08/11 01:00:35;;;;;;;6.90;3.22;;;;;;;20.63;75.10;99642.06;5078530;28;20490;-71
2021/08/11 01:03:07;;;;;;;6.18;4.28;;;;;;;20.59;75.34;99639.63;5078359;28;20055;-71
2021/08/11 01:05:37;;;;;;;6.25;3.58;;;;;;;20.61;75.46;99645.63;5078850;28;20056;-71
2021/08/11 01:08:06;;;;;;;;;;;;;;;20.61;75.54;99635.25;5078691;28;20040;-70
2021/08/11 01:10:37;;;;;;;7.78;4.00;;;;;;;20.60;75.68;99638.72;5063272;28;19921;-71
2021/08/11 01:13:08;;;;;;;6.30;3.45;;;;;;;20.56;75.34;99627.63;5054996;28;20053;-71
2021/08/11 01:15:39;;;;;;;7.75;3.83;;;;;;;20.55;75.35;99631.16;5055001;28;20041;-71
2021/08/11 01:18:09;;;;;;;5.95;3.58;;;;;;;20.52;75.77;99626.09;5055021;28;20095;-71
2021/08/11 01:20:51;;;;;;;7.82;3.85;;;;;;;20.52;75.48;99625.25;5054602;28;20049;-71
2021/08/11 01:23:23;;;;;;;6.57;3.35;;;;;;;20.48;75.77;99626.28;5056052;28;20037;-71
2021/08/11 01:26:03;;;;;;;7.40;3.78;;;;;;;20.47;76.04;99622.00;5056085;28;20136;-70
2021/08/11 01:28:44;;;;;;;5.50;3.55;;;;;;;20.48;75.65;99624.53;5055149;28;20083;-71
2021/08/11 01:31:18;;;;;;;8.13;3.72;;;;;;;20.45;75.75;99623.81;5054649;28;20136;-71
2021/08/11 01:33:59;;;;;;;5.10;3.17;;;;;;;20.49;75.53;99625.38;5054725;28;20041;-71
2021/08/11 01:36:38;;;;;;;7.32;3.80;;;;;;;20.31;75.49;99626.13;5054335;28;20052;-71
2021/08/11 01:39:11;;;;;;;10.88;3.58;;;;;;;20.24;76.00;99620.38;5055508;28;20052;-70
2021/08/11 01:41:47;;;;;;;6.75;3.47;;;;;;;20.27;76.00;99630.63;5054392;28;20048;-70
2021/08/11 01:44:23;;;;;;;6.55;3.40;;;;;;;20.20;75.96;99628.31;5054191;28;20041;-71
2021/08/11 01:46:54;;;;;;;5.10;3.53;;;;;;;20.11;76.27;99629.50;5037522;28;20045;-70
2021/08/11 01:49:27;;;;;;;7.80;3.25;;;;;;;20.10;76.56;99639.94;5054456;28;20072;-70
2021/08/11 01:51:56;;;;;;;7.13;3.45;;;;;;;20.04;76.45;99633.25;5055309;28;20128;-71
2021/08/11 01:54:26;;;;;;;;;;;;;;;20.01;76.51;99641.97;5054761;28;20045;-71
2021/08/11 01:56:57;;;;;;;5.47;3.40;;;;;;;19.99;76.80;99641.19;5055160;28;20270;-71
2021/08/11 01:59:27;;;;;;;5.47;3.53;;;;;;;20.15;76.77;99645.78;5037279;28;20049;-71
2021/08/11 02:01:56;;;;;;;6.28;3.65;;;;;;;20.23;76.41;99639.41;5053847;28;20037;-71
2021/08/11 02:04:28;;;;;;;5.97;3.30;;;;;;;20.29;75.97;99646.09;5053810;28;20041;-71
2021/08/11 02:06:58;;;;;;;5.60;3.35;;;;;;;20.31;75.76;99647.72;5053746;28;20045;-71
2021/08/11 02:09:29;;;;;;;8.18;3.28;;;;;;;20.27;75.81;99656.53;5058100;28;20041;-71
2021/08/11 02:11:59;;;;;;;7.13;3.15;;;;;;;20.22;76.03;99652.41;5077449;28;20131;-71
2021/08/11 02:14:29;;;;;;;5.80;3.38;;;;;;;20.22;76.05;99644.63;5077023;28;20127;-71
2021/08/11 02:17:00;;;;;;;5.35;3.25;;;;;;;20.18;75.96;99651.66;5077441;28;20056;-71
2021/08/11 02:19:33;;;;;;;8.15;3.17;;;;;;;20.18;75.92;99650.84;5077274;28;20047;-71
2021/08/11 02:22:03;;;;;;;10.43;3.75;;;;;;;20.13;75.95;99650.19;5060152;28;20047;-71
2021/08/11 02:24:33;;;;;;;7.15;3.50;;;;;;;20.15;75.99;99654.41;5059895;28;20134;-71
2021/08/11 02:27:07;;;;;;;6.55;3.35;;;;;;;20.19;76.10;99655.97;5076698;28;20127;-71
2021/08/11 02:29:49;;;;;;;6.53;3.28;;;;;;;20.20;75.84;99649.88;5077285;28;20036;-71
2021/08/11 02:32:25;;;;;;;5.88;2.97;;;;;;;20.10;75.93;99663.25;5076907;28;20048;-71
2021/08/11 02:35:05;;;;;;;5.23;2.97;;;;;;;20.01;76.27;99654.13;5059912;28;20493;-71
2021/08/11 02:37:45;;;;;;;8.07;3.25;;;;;;;20.10;76.32;99658.06;5076737;28;20280;-71
2021/08/11 02:40:19;;;;;;;8.07;3.95;;;;;;;20.08;76.26;99658.97;5094524;28;20048;-71
2021/08/11 02:42:57;;;;;;;5.53;3.35;;;;;;;20.04;76.22;99662.59;5076440;28;20521;-71
2021/08/11 02:45:28;;;;;;;5.10;3.33;;;;;;;19.86;76.72;99645.19;5076679;28;20036;-71
2021/08/11 02:47:59;;;;;;;6.88;3.38;;;;;;;19.84;77.13;99661.69;5059597;28;20044;-71
2021/08/11 02:50:32;;;;;;;8.57;3.40;;;;;;;19.80;77.27;99678.25;5076346;28;20115;-71
2021/08/11 02:53:02;;;;;;;5.38;3.10;;;;;;;19.77;77.52;99676.59;5094336;28;20058;-71
2021/08/11 02:55:33;;;;;;;9.55;3.67;;;;;;;19.58;77.43;99685.97;5076574;28;20108;-71
2021/08/11 02:58:03;;;;;;;7.10;3.30;;;;;;;19.54;77.79;99689.59;5094217;28;20056;-71
2021/08/11 03:00:34;;;;;;;7.10;3.90;;;;;;;19.45;77.91;99679.56;5076454;28;20044;-70
2021/08/11 03:03:04;;;;;;;7.35;4.07;;;;;;;19.56;78.04;99687.78;5076441;28;20553;-71
2021/08/11 03:05:36;;;;;;;7.38;3.70;;;;;;;19.49;77.97;99683.72;5094282;28;20067;-71
2021/08/11 03:08:07;;;;;;;8.32;3.30;;;;;;;19.36;78.44;99685.09;5076190;28;20043;-71
2021/08/11 03:10:39;;;;;;;7.15;4.13;;;;;;;19.36;78.74;99690.28;5075982;28;20044;-71
2021/08/11 03:13:12;;;;;;;8.20;4.18;;;;;;;19.27;78.76;99686.22;5076197;28;20439;-70
2021/08/11 03:15:44;;;;;;;8.23;3.75;;;;;;;19.20;79.13;99694.25;5093994;28;20048;-71
2021/08/11 03:18:17;;;;;;;8.30;4.32;;;;;;;19.13;79.09;99697.97;5076294;28;20046;-71
2021/08/11 03:20:49;;;;;;;9.18;4.45;;;;;;;19.13;79.58;99690.19;5075950;28;20063;-71
2021/08/11 03:23:18;;;;;;;6.32;4.05;;;;;;;19.17;79.65;99687.44;5093862;28;20056;-71
2021/08/11 03:25:58;;;;;;;7.15;4.35;;;;;;;19.18;79.74;99685.72;5077690;28;20493;-71
2021/08/11 03:28:28;;;;;;;5.95;3.80;;;;;;;19.10;79.87;99704.09;5059080;28;20048;-71
2021/08/11 03:30:58;;;;;;;8.07;4.22;;;;;;;18.97;79.86;99708.00;5094138;28;20097;-71
2021/08/11 03:33:30;;;;;;;6.90;4.63;;;;;;;18.81;80.24;99704.25;5075780;28;20037;-71
2021/08/11 03:36:01;;;;;;;;;;;;;;;18.77;80.74;99701.81;5093873;28;20052;-71
2021/08/11 03:38:30;;;;;;;6.15;3.72;;;;;;;18.83;81.08;99699.88;5075768;28;19926;-71
2021/08/11 03:40:59;;;;;;;5.53;3.90;;;;;;;18.91;81.26;99712.56;5093597;28;20044;-71
2021/08/11 03:43:28;;;;;;;6.88;4.13;;;;;;;18.85;81.27;99715.34;5075620;28;20036;-71
2021/08/11 03:45:58;;;;;;;7.07;4.25;;;;;;;18.95;81.53;99719.31;5075767;28;20029;-71
2021/08/11 03:48:27;;;;;;;7.07;4.40;;;;;;;18.94;81.39;99717.59;5058759;28;20040;-71
2021/08/11 03:50:56;;;;;;;6.72;4.40;;;;;;;19.03;81.54;99714.69;5075859;28;20489;-71
2021/08/11 03:53:27;;;;;;;5.55;3.72;;;;;;;19.08;81.64;99712.78;5075772;28;20066;-71
2021/08/11 03:55:56;;;;;;;6.82;4.15;;;;;;;19.15;81.78;99716.84;5075599;28;20139;-71
2021/08/11 03:58:26;;;;;;;9.25;4.45;;;;;;;19.22;81.77;99719.19;5075554;28;20131;-71
2021/08/11 04:00:55;;;;;;;9.52;4.18;;;;;;;19.20;81.73;99720.13;5093806;28;20093;-71
2021/08/11 04:03:25;;;;;;;7.65;4.40;;;;;;;19.23;81.91;99720.03;5093423;28;20036;-71
2021/08/11 04:05:54;;;;;;;10.52;4.90;;;;;;;19.35;81.59;99729.94;5093341;28;20040;-70
2021/08/11 04:08:23;;;;;;;9.13;4.07;;;;;;;19.41;81.36;99734.97;5093448;28;20588;-71
2021/08/11 04:10:54;;;;;;;6.70;4.57;;;;;;;19.46;81.08;99743.38;5093352;28;20051;-71
2021/08/11 04:13:23;;;;;;;7.10;4.35;;;;;;;19.38;80.78;99737.66;5093373;28;20123;-71
2021/08/11 04:15:52;;;;;;;7.47;4.10;;;;;;;19.43;80.79;99733.16;5093325;28;20036;-72
2021/08/11 04:18:21;;;;;;;9.88;3.90;;;;;;;19.58;80.70;99717.03;5093572;28;20078;-72
2021/08/11 04:20:50;;;;;;;;;;;;;;;19.71;80.28;99713.13;5093707;28;20119;-72
2021/08/11 04:23:19;;;;;;;8.43;4.35;;;;;;;19.79;80.09;99716.28;5093559;28;19920;-72
2021/08/11 04:25:48;;;;;;;8.68;4.35;;;;;;;19.90;79.83;99716.69;5093199;28;20032;-72
2021/08/11 04:28:19;;;;;;;8.93;4.13;;;;;;;20.02;79.36;99705.88;5093789;28;20127;-73
2021/08/11 04:30:48;;;;;;;6.75;4.18;;;;;;;20.10;78.88;99699.53;5093541;28;20055;-72
2021/08/11 04:33:18;;;;;;;6.47;4.20;;;;;;;20.18;78.25;99693.13;5093191;28;20074;-69
2021/08/11 04:35:47;;;;;;;6.55;3.70;;;;;;;20.16;78.04;99699.28;5093360;28;20044;-69
2021/08/11 04:38:18;;;;;;;6.82;4.22;;;;;;;20.21;78.02;99707.72;5093135;28;20044;-69
2021/08/11 04:40:56;;;;;;;7.35;3.85;;;;;;;20.21;78.18;99728.47;5093415;28;20486;-68
2021/08/11 04:43:28;;;;;;;10.00;4.18;;;;;;;20.22;78.30;99730.16;5093600;28;20032;-69
2021/08/11 04:45:57;;;;;;;9.85;4.72;;;;;;;20.13;78.63;99735.72;5092997;28;20048;-68
2021/08/11 04:48:26;;;;;;;6.90;4.18;;;;;;;20.16;78.65;99735.56;5095806;28;20036;-68
2021/08/11 04:50:55;;;;;;;8.13;4.15;;;;;;;20.26;78.46;99729.16;5096668;28;20051;-68
2021/08/11 04:53:24;;;;;;;9.38;4.72;;;;;;;20.37;77.82;99719.22;5096883;28;20031;-68
2021/08/11 04:55:53;;;;;;;7.03;3.90;;;;;;;20.48;77.43;99717.88;5096472;28;20123;-68
2021/08/11 04:58:22;;;;;;;9.10;3.70;;;;;;;20.59;76.97;99707.06;5096697;28;20464;-68
2021/08/11 05:00:52;;;;;;;7.68;3.95;;;;;;;20.70;76.65;99707.50;5097050;28;20029;-68
2021/08/11 05:03:21;;;;;;;7.05;3.90;;;;;;;20.78;76.14;99700.22;5096350;28;20048;-68
2021/08/11 05:05:51;;;;;;;8.27;3.78;;;;;;;20.88;75.92;99708.44;5096238;28;20113;-68
2021/08/11 05:08:20;;;;;;;8.80;4.00;;;;;;;20.90;75.35;99717.84;5096217;28;20058;-69
2021/08/11 05:10:48;;;;;;;8.25;4.38;;;;;;;20.91;75.08;99727.34;5096242;28;20106;-69
2021/08/11 05:13:18;;;;;;;6.03;3.63;;;;;;;20.91;75.08;99722.16;5096181;28;20040;-68
2021/08/11 05:15:47;;;;;;;7.45;3.72;;;;;;;20.88;75.00;99719.69;5096092;28;20573;-68
2021/08/11 05:18:17;;;;;;;8.18;3.80;;;;;;;20.89;75.04;99731.75;5096109;28;20036;-68
2021/08/11 05:20:46;;;;;;;6.20;3.83;;;;;;;20.94;75.05;99737.59;5096063;28;20067;-68
2021/08/11 05:23:15;;;;;;;5.88;3.65;;;;;;;20.93;75.47;99745.44;5096044;28;20135;-68
2021/08/11 05:25:45;;;;;;;9.82;3.20;;;;;;;20.99;75.61;99740.84;5095743;28;20040;-68
2021/08/11 05:28:14;;;;;;;7.18;3.58;;;;;;;20.99;75.72;99740.84;5096473;28;20048;-68
2021/08/11 05:30:43;;;;;;;7.25;3.72;;;;;;;21.01;75.61;99744.22;5096065;28;20451;-68
2021/08/11 05:33:12;;;;;;;6.65;3.85;;;;;;;21.09;75.80;99736.16;5095789;28;20044;-68
2021/08/11 05:35:43;;;;;;;7.13;3.92;;;;;;;21.19;75.19;99742.59;5095777;28;20040;-68
2021/08/11 05:38:12;;;;;;;8.27;4.05;;;;;;;21.15;75.15;99747.09;5095707;28;20043;-68
2021/08/11 05:40:41;;;;;;;13.90;3.80;;;;;;;21.14;74.96;99745.41;5095665;28;20489;-68
2021/08/11 05:43:10;;;;;;;5.45;3.28;;;;;;;21.27;74.42;99749.19;5095498;28;20458;-68
2021/08/11 05:45:39;;;;;;;8.35;4.20;;;;;;;21.39;74.11;99750.38;5095462;28;20040;-68
2021/08/11 05:48:09;;;;;;;10.52;4.40;;;;;;;21.48;73.57;99754.31;5095411;28;20052;-68
2021/08/11 05:50:37;;;;;;;;;;;;;;;21.61;72.75;99765.88;5095890;28;20040;-68
2021/08/11 05:53:08;;;;;;;6.78;3.15;;;;;;;21.63;72.52;99762.31;5095733;28;19920;-68
2021/08/11 05:55:37;;;;;;;7.50;4.18;;;;;;;21.63;72.20;99753.66;5095337;28;20127;-68
2021/08/11 05:58:05;;;;;;;6.43;3.85;;;;;;;21.62;72.16;99762.38;5094873;28;20509;-68
2021/08/11 06:00:35;;;;;;;10.00;4.25;;;;;;;21.67;72.12;99771.63;5095315;28;20032;-68
2021/08/11 06:03:04;;;;;;;8.30;4.38;;;;;;;21.71;72.16;99761.97;5095210;28;20051;-68
2021/08/11 06:05:54;;;;;;;8.82;4.45;;;;;;;21.78;72.01;99763.38;5095436;28;20131;-68
2021/08/11 06:08:25;;;;;;;13.60;4.35;;;;;;;21.83;72.09;99761.41;5094985;28;20498;-68
2021/08/11 06:10:54;;;;;;;7.68;3.70;;;;;;;21.83;71.92;99764.00;5095187;28;20054;-68
2021/08/11 06:13:23;;;;;;;;;;;;;;;21.88;71.99;99772.47;5077351;28;20036;-69
2021/08/11 06:15:52;;;;;;;6.97;4.28;;;;;;;21.92;71.89;99761.03;5095192;28;19920;-69
2021/08/11 06:18:22;;;;;;;8.55;4.28;;;;;;;21.98;71.83;99761.56;5094970;28;20123;-69
2021/08/11 06:20:52;;;;;;;5.57;3.78;;;;;;;22.03;71.67;99761.38;5095057;28;20417;-69
2021/08/11 06:23:21;;;;;;;7.05;3.60;;;;;;;22.13;71.88;99766.97;5094796;28;20048;-69
2021/08/11 06:25:52;;;;;;;9.82;4.70;;;;;;;22.21;71.68;99767.47;5094671;28;20036;-69
2021/08/11 06:28:21;;;;;;;7.68;3.58;;;;;;;22.24;71.91;99763.00;5095026;28;20040;-69
2021/08/11 06:30:50;;;;;;;6.65;3.95;;;;;;;22.28;71.54;99754.13;5094641;28;20117;-69
2021/08/11 06:33:19;;;;;;;7.80;4.30;;;;;;;22.25;71.64;99756.84;5094542;28;20071;-69
2021/08/11 06:35:48;;;;;;;7.25;4.07;;;;;;;22.32;71.46;99750.44;5094562;28;20134;-69
2021/08/11 06:38:18;;;;;;;8.93;3.90;;;;;;;22.35;70.72;99750.31;5094737;28;20024;-69
2021/08/11 06:40:48;;;;;;;6.90;3.70;;;;;;;22.43;70.24;99763.81;5094499;28;20481;-69
2021/08/11 06:43:19;;;;;;;5.47;3.60;;;;;;;22.36;69.71;99758.97;5094412;28;20062;-69
2021/08/11 06:45:48;;;;;;;6.47;3.58;;;;;;;22.31;69.62;99769.59;5076684;28;20132;-68
2021/08/11 06:48:20;;;;;;;6.18;3.90;;;;;;;22.32;69.64;99755.66;5076773;28;20054;-69
2021/08/11 06:50:49;;;;;;;8.18;4.32;;;;;;;22.54;69.87;99756.31;5093135;28;20039;-69
2021/08/11 06:53:18;;;;;;;8.85;3.83;;;;;;;22.96;69.13;99757.78;5094284;28;20126;-69
2021/08/11 06:55:48;;;;;;;7.00;3.58;;;;;;;23.36;68.16;99752.25;5094190;28;20044;-69
2021/08/11 06:58:18;;;;;;;8.32;3.60;;;;;;;23.63;67.50;99750.81;5094538;28;20028;-69
2021/08/11 07:00:47;;;;;;;6.88;3.70;;;;;;;23.81;66.83;99764.63;5094162;28;20462;-69
2021/08/11 07:03:19;;;;;;;7.85;4.00;;;;;;;24.00;65.45;99750.50;5094314;28;20059;-69
2021/08/11 07:05:48;;;;;;;8.73;3.72;;;;;;;24.22;64.82;99751.97;5094104;28;20085;-69
2021/08/11 07:08:20;;;;;;;9.43;3.50;;;;;;;24.46;63.78;99753.22;5094007;28;20089;-68
2021/08/11 07:10:49;;;;;;;6.53;3.20;;;;;;;24.69;62.58;99752.75;5093208;28;20101;-68
2021/08/11 07:13:21;;;;;;;7.90;3.75;;;;;;;24.76;62.17;99751.50;5093856;28;20101;-68
2021/08/11 07:15:50;;;;;;;6.18;3.47;;;;;;;24.77;61.81;99752.34;5093832;28;20090;-68
2021/08/11 07:18:20;;;;;;;;;;;;;;;24.95;61.36;99752.13;5093938;28;20148;-68
2021/08/11 07:20:49;;;;;;;7.15;3.50;;;;;;;25.12;60.81;99754.56;5093798;28;20361;-68
2021/08/11 07:23:18;;;;;;;7.88;3.58;;;;;;;25.22;60.24;99745.25;5094123;28;20070;-68
2021/08/11 07:25:48;;;;;;;7.70;3.63;;;;;;;25.27;60.00;99748.44;5093950;28;20062;-68
2021/08/11 07:28:19;;;;;;;9.95;3.75;;;;;;;25.29;59.89;99751.81;5094093;28;20028;-68
2021/08/11 07:30:49;;;;;;;6.82;3.80;;;;;;;25.44;59.91;99765.75;5093896;28;20047;-68
2021/08/11 07:33:18;;;;;;;4.57;3.13;;;;;;;25.57;59.83;99765.88;5093706;28;20075;-68
2021/08/11 07:35:48;;;;;;;8.02;3.90;;;;;;;25.48;59.08;99766.44;5093848;28;20433;-68
2021/08/11 07:38:17;;;;;;;7.32;3.30;;;;;;;25.54;59.76;99760.81;5094088;28;20093;-68
2021/08/11 07:40:46;;;;;;;5.25;3.28;;;;;;;25.71;59.43;99765.88;5093875;28;20032;-68
2021/08/11 07:43:15;;;;;;;;;;;;;;;25.94;59.40;99775.72;5093982;28;20044;-68
2021/08/11 07:45:46;;;;;;;10.13;3.27;;;;;;;26.11;57.96;99772.94;5093556;28;19943;-68
2021/08/11 07:48:34;;;;;;;5.03;3.22;;;;;;;26.20;57.33;99782.00;5093590;28;20090;-68
2021/08/11 07:51:04;;;;;;;7.15;2.85;;;;;;;26.28;56.63;99785.81;5093515;28;20044;-68
2021/08/11 07:53:33;;;;;;;6.45;3.47;;;;;;;26.44;56.90;99778.66;5075580;28;20036;-68
2021/08/11 07:56:02;;;;;;;7.13;3.60;;;;;;;26.63;56.56;99776.53;5075308;28;20074;-68
2021/08/11 07:58:33;;;;;;;7.45;3.90;;;;;;;26.86;56.33;99782.06;5093495;28;20044;-68
2021/08/11 08:01:04;;;;;;;5.78;2.95;;;;;;;26.98;55.20;99776.03;5093585;28;20078;-68
2021/08/11 08:03:34;;;;;;;5.03;2.95;;;;;;;27.11;55.02;99787.38;5093972;28;20037;-68
2021/08/11 08:06:18;;;;;;;7.85;3.80;;;;;;;27.19;54.66;99785.06;5093268;28;20686;-68
2021/08/11 08:08:47;;;;;;;6.10;3.30;;;;;;;27.31;55.22;99781.63;5093081;28;20028;-68
2021/08/11 08:11:16;;;;;;;;;;;;;;;27.49;54.15;99788.28;5093966;28;20059;-68
2021/08/11 08:13:46;;;;;;;6.77;3.33;;;;;;;27.52;53.28;99788.06;5093593;28;19920;-68
2021/08/11 08:16:17;;;;;;;5.70;3.35;;;;;;;27.61;52.77;99790.06;5093321;28;20401;-69
2021/08/11 08:18:46;;;;;;;5.88;3.35;;;;;;;27.75;52.50;99784.69;5093291;28;20044;-68
2021/08/11 08:21:15;;;;;;;3.72;2.60;;;;;;;27.88;50.90;99785.50;5076040;28;20032;-69
2021/08/11 08:23:44;;;;;;;4.82;2.83;;;;;;;28.01;52.16;99784.69;5097095;28;20044;-69
2021/08/11 08:26:13;;;;;;;5.57;3.22;;;;;;;27.64;52.61;99776.72;5097363;28;20040;-69
2021/08/11 08:28:48;;;;;;;6.28;3.17;;;;;;;27.24;53.38;99777.75;5097040;28;20124;-69
2021/08/11 08:31:18;;;;;;;5.88;3.03;;;;;;;26.86;53.09;99782.06;5096757;28;20094;-69
2021/08/11 08:33:49;;;;;;;5.13;2.80;;;;;;;26.71;53.72;99783.03;5097046;28;20059;-69
2021/08/11 08:36:18;;;;;;;6.18;3.40;;;;;;;26.65;54.65;99778.22;5097000;28;20039;-70
2021/08/11 08:38:47;;;;;;;;;;;;;;;26.99;52.83;99782.97;5097660;28;20041;-70
2021/08/11 08:41:16;;;;;;;5.45;2.80;;;;;;;27.32;52.25;99785.94;5096784;28;19926;-70
2021/08/11 08:43:47;;;;;;;6.50;3.10;;;;;;;27.69;52.85;99790.34;5096890;28;20047;-69
2021/08/11 08:46:20;;;;;;;5.38;2.83;;;;;;;28.07;52.33;99786.88;5096602;28;20038;-69
2021/08/11 08:48:50;;;;;;;7.20;3.45;;;;;;;28.35;50.85;99782.19;5096521;28;20555;-69
2021/08/11 08:51:22;;;;;;;5.88;3.17;;;;;;;28.42;49.03;99790.44;5096655;28;20094;-69
2021/08/11 08:53:52;;;;;;;5.15;2.90;;;;;;;28.29;49.06;99784.41;5096918;28;20041;-69
2021/08/11 08:56:21;;;;;;;4.25;2.72;;;;;;;28.28;49.58;99767.81;5096557;28;20123;-69
2021/08/11 08:58:50;;;;;;;5.40;3.35;;;;;;;28.43;48.37;99776.38;5096803;28;20040;-69
2021/08/11 09:01:22;;;;;;;4.50;3.03;;;;;;;28.55;47.97;99770.22;5078515;28;20123;-69
2021/08/11 09:03:51;;;;;;;6.35;3.20;;;;;;;28.75;47.28;99781.91;5096667;28;20482;-68
2021/08/11 09:06:20;;;;;;;5.18;3.15;;;;;;;28.94;47.22;99784.84;5096444;28;20459;-68
2021/08/11 09:08:56;;;;;;;6.47;2.97;;;;;;;29.05;45.64;99775.22;5096380;28;20068;-68
2021/08/11 09:11:25;;;;;;;4.78;2.70;;;;;;;29.09;43.16;99773.19;5096331;28;20389;-69
2021/08/11 09:14:16;;;;;;;7.47;2.80;;;;;;;29.29;43.17;99787.50;5095803;28;20063;-68
2021/08/11 09:16:52;;;;;;;4.07;2.70;;;;;;;29.34;43.18;99785.34;5096273;28;20066;-69
2021/08/11 09:19:22;;;;;;;4.80;2.80;;;;;;;29.43;42.03;99784.66;5096084;28;20131;-69
2021/08/11 09:22:02;;;;;;;4.13;2.60;;;;;;;29.49;41.88;99778.94;5095982;28;20043;-68
2021/08/11 09:24:35;;;;;;;5.38;3.25;;;;;;;29.66;42.94;99784.53;5095999;28;20109;-69
2021/08/11 09:27:26;;;;;;;4.90;2.72;;;;;;;29.87;43.71;99787.34;5095774;28;20048;-68
2021/08/11 09:30:04;;;;;;;5.90;3.38;;;;;;;29.95;42.79;99781.44;5095757;28;20120;-68
2021/08/11 09:32:48;;;;;;;5.57;3.35;;;;;;;29.78;40.90;99785.41;5077087;28;20555;-68
2021/08/11 09:35:22;;;;;;;5.13;2.97;;;;;;;29.88;40.46;99786.38;5077564;28;20044;-70
2021/08/11 09:37:53;;;;;;;6.00;3.05;;;;;;;29.94;40.60;99783.28;5077544;28;20414;-68
2021/08/11 09:40:24;;;;;;;5.72;3.00;;;;;;;30.03;40.36;99790.44;5096044;28;20212;-68
2021/08/11 09:42:58;;;;;;;5.45;2.90;;;;;;;30.11;39.23;99788.03;5077364;28;20040;-68
2021/08/11 09:45:28;;;;;;;5.45;2.92;;;;;;;30.18;40.43;99778.69;5095427;28;20044;-68
2021/08/11 09:48:03;;;;;;;6.05;2.63;;;;;;;30.29;40.55;99786.56;5095568;28;20086;-68
2021/08/11 09:50:46;;;;;;;5.68;2.75;;;;;;;30.38;39.54;99780.59;5095089;28;20168;-68
2021/08/11 09:53:18;;;;;;;5.35;3.10;;;;;;;30.35;40.46;99783.44;5095327;28;20044;-68
2021/08/11 09:56:00;;;;;;;5.00;2.67;;;;;;;30.43;39.69;99782.84;5095264;28;20040;-69
2021/08/11 09:58:37;;;;;;;5.78;3.00;;;;;;;30.56;40.70;99793.22;5095454;28;20146;-69
2021/08/11 10:01:08;;;;;;;5.60;2.60;;;;;;;30.64;39.59;99788.19;5076946;28;20052;-68
2021/08/11 10:03:55;;;;;;;5.72;2.60;;;;;;;30.86;39.34;99793.34;5095136;28;20440;-69
2021/08/11 10:06:25;;;;;;;5.55;2.75;;;;;;;30.89;39.47;99790.50;5095088;28;20048;-68
2021/08/11 10:08:56;;;;;;;4.45;2.65;;;;;;;30.92;39.66;99800.78;5094962;28;20119;-69
2021/08/11 10:11:36;;;;;;;4.30;2.70;;;;;;;30.96;38.56;99800.41;5094722;28;20524;-69
2021/08/11 10:14:06;;;;;;;4.40;2.90;;;;;;;30.91;38.60;99788.56;5094826;28;20040;-68
2021/08/11 10:16:36;;;;;;;5.85;2.92;;;;;;;30.84;38.76;99782.94;5094719;28;20044;-67
2021/08/11 10:19:09;;;;;;;4.95;3.15;;;;;;;30.43;38.15;99788.94;5094834;28;20131;-68
2021/08/11 10:21:44;;;;;;;5.82;3.10;;;;;;;30.02;39.53;99783.47;5094872;28;20553;-68
2021/08/11 10:24:13;;;;;;;4.70;2.90;;;;;;;30.18;41.73;99789.22;5095197;28;20448;-68
2021/08/11 10:26:42;;;;;;;;;;;;;;;30.28;42.20;99784.06;5095078;28;20123;-68
2021/08/11 10:29:11;;;;;;;;;;;;;;;30.63;42.02;99779.44;5094906;28;19920;-68
2021/08/11 10:31:40;;;;;;;4.85;2.95;;;;;;;30.78;42.82;99785.25;5094520;28;19920;-68
2021/08/11 10:34:12;;;;;;;5.72;3.15;;;;;;;31.04;42.19;99786.59;5094529;28;20401;-68
2021/08/11 10:36:44;;;;;;;4.28;2.97;;;;;;;31.10;40.76;99778.16;5094600;28;20036;-68
2021/08/11 10:39:15;;;;;;;8.65;3.40;;;;;;;30.97;39.77;99774.88;5094567;28;20085;-67
2021/08/11 10:41:45;;;;;;;5.18;3.08;;;;;;;31.14;41.02;99784.88;5094439;28;20520;-68
2021/08/11 10:44:19;;;;;;;4.90;3.10;;;;;;;31.14;40.47;99784.88;5094750;28;20564;-67
2021/08/11 10:46:54;;;;;;;4.30;2.97;;;;;;;31.15;40.02;99776.81;5094403;28;20081;-68
2021/08/11 10:49:27;;;;;;;4.63;2.80;;;;;;;31.28;40.67;99771.34;5094491;28;20474;-68
2021/08/11 10:51:59;;;;;;;4.65;3.10;;;;;;;31.24;39.44;99769.94;5094310;28;20044;-68
2021/08/11 10:54:29;;;;;;;4.90;2.95;;;;;;;31.37;40.42;99770.56;5094110;28;20457;-68
2021/08/11 10:56:58;;;;;;;5.38;2.92;;;;;;;31.51;40.21;99780.78;5094311;28;20508;-68
2021/08/11 10:59:45;;;;;;;4.97;2.83;;;;;;;31.72;39.33;99776.31;5094123;28;20044;-68
2021/08/11 11:02:36;;;;;;;4.82;3.20;;;;;;;31.74;38.08;99771.75;5094151;28;20101;-68
2021/08/11 11:05:09;;;;;;;4.95;2.78;;;;;;;31.70;37.72;99775.59;5093964;28;20044;-68
2021/08/11 11:07:38;;;;;;;6.43;3.22;;;;;;;31.67;39.29;99777.69;5093987;28;20042;-69
2021/08/11 11:10:26;;;;;;;7.43;3.28;;;;;;;31.60;38.25;99769.44;5093869;28;20055;-68
2021/08/11 11:12:55;;;;;;;6.07;3.10;;;;;;;31.82;39.01;99764.97;5075788;28;20046;-69
2021/08/11 11:15:51;;;;;;;6.20;3.30;;;;;;;32.06;39.62;99765.50;5094208;28;20051;-68
2021/08/11 11:18:22;;;;;;;5.32;3.00;;;;;;;32.07;38.74;99764.50;5093928;28;20075;-68
2021/08/11 11:21:24;;;;;;;5.40;3.33;;;;;;;32.16;39.63;99766.34;5094105;28;20127;-68
2021/08/11 11:23:53;;;;;;;5.88;3.25;;;;;;;31.52;38.48;99769.28;5094217;28;20063;-68
2021/08/11 11:26:32;;;;;;;4.20;2.70;;;;;;;31.60;36.89;99764.16;5093654;28;20040;-68
2021/08/11 11:29:04;;;;;;;6.35;3.35;;;;;;;31.74;37.73;99758.56;5093954;28;20478;-68
2021/08/11 11:31:45;;;;;;;7.90;3.92;;;;;;;31.87;38.35;99763.56;5094415;28;20048;-68
2021/08/11 11:34:26;;;;;;;5.30;3.03;;;;;;;32.03;39.28;99763.13;5093567;28;20052;-68
2021/08/11 11:37:18;;;;;;;5.90;3.50;;;;;;;32.25;38.21;99769.00;5093604;28;20032;-68
2021/08/11 11:40:05;;;;;;;4.75;3.15;;;;;;;32.27;36.66;99766.22;5093459;28;20462;-68
2021/08/11 11:42:35;;;;;;;5.70;3.40;;;;;;;32.26;37.52;99764.53;5092926;28;20043;-68
2021/08/11 11:45:06;;;;;;;5.43;3.20;;;;;;;32.35;38.58;99751.34;5092855;28;20040;-69
2021/08/11 11:47:56;;;;;;;5.18;3.22;;;;;;;32.33;37.00;99755.94;5092775;28;20226;-68
2021/08/11 11:50:28;;;;;;;5.50;3.15;;;;;;;32.37;36.47;99751.22;5090105;28;20032;-69
2021/08/11 11:52:59;;;;;;;6.10;3.30;;;;;;;32.44;36.83;99755.00;5093347;28;20048;-68
2021/08/11 11:55:32;;;;;;;4.57;2.78;;;;;;;32.60;37.38;99763.22;5093531;28;20040;-68
2021/08/11 11:58:02;;;;;;;5.65;3.10;;;;;;;32.42;36.83;99759.56;5097954;28;20044;-68